Wetterdaten: Woche 24.02.14 - 02.03.14 (KW9)
Datum Zeit Temperatur Luftfeuchte Luftdruck Niederschlag Windrichtung Sonnenschein Solar Wind
24.02.2014 00:00 -0,0 C 94 % 1019,5 hPa 0,0 l/m N 0,00 h 0 W/m 2,4 km/h (1 Bft)
24.02.2014 01:00 -0,7 C 94 % 1019,3 hPa 0,0 l/m N 0,00 h 0 W/m 1,2 km/h (1 Bft)
24.02.2014 02:00 -1,1 C 95 % 1018,8 hPa 0,0 l/m N 0,00 h 0 W/m 2,8 km/h (1 Bft)
24.02.2014 03:00 -1,3 C 95 % 1018,3 hPa 0,0 l/m N 0,00 h 0 W/m 2,7 km/h (1 Bft)
24.02.2014 04:00 -1,7 C 95 % 1017,9 hPa 0,0 l/m N 0,00 h 0 W/m 1,6 km/h (1 Bft)
24.02.2014 05:00 -2,2 C 95 % 1017,8 hPa 0,0 l/m SW 0,00 h 0 W/m 3,2 km/h (1 Bft)
24.02.2014 06:00 -2,4 C 95 % 1017,7 hPa 0,0 l/m N 0,00 h 0 W/m 1,3 km/h (1 Bft)
24.02.2014 07:00 -2,8 C 95 % 1017,6 hPa 0,0 l/m W-SW 0,00 h 15 W/m 2,0 km/h (1 Bft)
24.02.2014 08:00 -2,7 C 96 % 1018,2 hPa 0,0 l/m W-SW 0,50 h 95 W/m 1,9 km/h (1 Bft)
24.02.2014 09:00 -1,6 C 97 % 1018,4 hPa 0,0 l/m NW 1,00 h 283 W/m 6,9 km/h (2 Bft)
24.02.2014 10:00 -0,4 C 97 % 1018,6 hPa 0,0 l/m NW 1,00 h 424 W/m 3,9 km/h (1 Bft)
24.02.2014 11:00 3,0 C 89 % 1018,4 hPa 0,0 l/m NW 1,00 h 529 W/m 3,2 km/h (1 Bft)
24.02.2014 12:00 7,0 C 72 % 1017,6 hPa 0,0 l/m SW 1,00 h 569 W/m 10,3 km/h (2 Bft)
24.02.2014 13:00 8,9 C 67 % 1016,7 hPa 0,0 l/m S-SW 1,00 h 555 W/m 11,0 km/h (2 Bft)
24.02.2014 14:00 10,4 C 59 % 1016,1 hPa 0,0 l/m SW 1,00 h 493 W/m 12,4 km/h (3 Bft)
24.02.2014 15:00 11,0 C 49 % 1016,0 hPa 0,0 l/m W 1,00 h 388 W/m 10,6 km/h (2 Bft)
24.02.2014 16:00 10,8 C 47 % 1016,0 hPa 0,0 l/m SW 1,00 h 225 W/m 9,3 km/h (2 Bft)
24.02.2014 17:00 8,6 C 53 % 1016,2 hPa 0,0 l/m SW 0,42 h 40 W/m 2,4 km/h (1 Bft)
24.02.2014 18:00 4,9 C 70 % 1016,6 hPa 0,0 l/m N 0,00 h 0 W/m 0,1 km/h (0 Bft)
24.02.2014 19:00 3,0 C 79 % 1016,8 hPa 0,0 l/m N 0,00 h 0 W/m 0,0 km/h (0 Bft)
24.02.2014 20:00 1,7 C 84 % 1016,5 hPa 0,0 l/m N 0,00 h 0 W/m 0,0 km/h (0 Bft)
24.02.2014 21:00 1,1 C 87 % 1016,5 hPa 0,0 l/m SW 0,00 h 0 W/m 1,5 km/h (1 Bft)
24.02.2014 22:00 -0,0 C 90 % 1016,5 hPa 0,0 l/m N 0,00 h 0 W/m 0,3 km/h (0 Bft)
24.02.2014 23:00 -0,8 C 91 % 1016,5 hPa 0,0 l/m N 0,00 h 0 W/m 0,0 km/h (0 Bft)
25.02.2014 00:00 -1,2 C 93 % 1016,5 hPa 0,0 l/m N 0,00 h 0 W/m 0,3 km/h (0 Bft)
25.02.2014 01:00 -1,7 C 93 % 1016,9 hPa 0,0 l/m N 0,00 h 0 W/m 0,1 km/h (0 Bft)
25.02.2014 02:00 -2,1 C 94 % 1017,0 hPa 0,0 l/m N 0,00 h 0 W/m 0,0 km/h (0 Bft)
25.02.2014 03:00 -2,3 C 94 % 1016,8 hPa 0,0 l/m N 0,00 h 0 W/m 0,0 km/h (0 Bft)
25.02.2014 04:00 -2,6 C 95 % 1016,7 hPa 0,0 l/m N 0,00 h 0 W/m 0,0 km/h (0 Bft)
25.02.2014 05:00 -2,9 C 95 % 1016,7 hPa 0,0 l/m N 0,00 h 0 W/m 0,0 km/h (0 Bft)
25.02.2014 06:00 -3,1 C 94 % 1016,5 hPa 0,0 l/m N 0,00 h 0 W/m 0,0 km/h (0 Bft)
25.02.2014 07:00 -3,0 C 95 % 1016,3 hPa 0,0 l/m N 0,00 h 16 W/m 0,0 km/h (0 Bft)
25.02.2014 08:00 -1,3 C 92 % 1016,4 hPa 0,0 l/m N 0,50 h 106 W/m 0,1 km/h (0 Bft)
25.02.2014 09:00 2,1 C 80 % 1015,8 hPa 0,2 l/m SW 1,00 h 298 W/m 5,1 km/h (1 Bft)
25.02.2014 10:00 5,5 C 62 % 1015,7 hPa 0,0 l/m SW 1,00 h 350 W/m 7,9 km/h (2 Bft)
25.02.2014 11:00 7,7 C 60 % 1015,5 hPa 0,0 l/m SW 1,00 h 439 W/m 8,2 km/h (2 Bft)
25.02.2014 12:00 9,5 C 59 % 1014,9 hPa 0,0 l/m S-SW 0,67 h 394 W/m 11,6 km/h (2 Bft)
25.02.2014 13:00 9,8 C 61 % 1014,4 hPa 0,0 l/m S-SW 0,83 h 331 W/m 12,2 km/h (2 Bft)
25.02.2014 14:00 10,1 C 63 % 1014,2 hPa 0,0 l/m S-SW 0,83 h 321 W/m 13,8 km/h (3 Bft)
25.02.2014 15:00 10,2 C 61 % 1013,9 hPa 0,0 l/m S-SW 1,00 h 301 W/m 15,2 km/h (3 Bft)
25.02.2014 16:00 9,9 C 60 % 1013,8 hPa 0,0 l/m SW 1,00 h 184 W/m 13,0 km/h (3 Bft)
25.02.2014 17:00 8,2 C 66 % 1013,9 hPa 0,0 l/m S-SW 0,08 h 25 W/m 4,8 km/h (1 Bft)
25.02.2014 18:00 5,7 C 75 % 1014,1 hPa 0,0 l/m N 0,00 h 0 W/m 0,0 km/h (0 Bft)
25.02.2014 19:00 4,7 C 80 % 1014,3 hPa 0,0 l/m N 0,00 h 0 W/m 0,3 km/h (0 Bft)
25.02.2014 20:00 3,7 C 82 % 1014,3 hPa 0,0 l/m N 0,00 h 0 W/m 0,3 km/h (0 Bft)
25.02.2014 21:00 2,6 C 86 % 1014,3 hPa 0,0 l/m N 0,00 h 0 W/m 0,0 km/h (0 Bft)
25.02.2014 22:00 1,7 C 88 % 1014,0 hPa 0,0 l/m N 0,00 h 0 W/m 0,0 km/h (0 Bft)
25.02.2014 23:00 1,2 C 90 % 1013,7 hPa 0,0 l/m N 0,00 h 0 W/m 0,4 km/h (0 Bft)
26.02.2014 00:00 0,9 C 91 % 1013,8 hPa 0,0 l/m N 0,00 h 0 W/m 0,0 km/h (0 Bft)
26.02.2014 01:00 0,6 C 91 % 1013,9 hPa 0,0 l/m N 0,00 h 0 W/m 0,0 km/h (0 Bft)
26.02.2014 02:00 0,8 C 90 % 1014,3 hPa 0,0 l/m N 0,00 h 0 W/m 0,5 km/h (0 Bft)
26.02.2014 03:00 0,7 C 89 % 1014,3 hPa 0,0 l/m N 0,00 h 0 W/m 0,5 km/h (0 Bft)
26.02.2014 04:00 0,7 C 91 % 1014,3 hPa 0,0 l/m N 0,00 h 0 W/m 0,1 km/h (0 Bft)
26.02.2014 05:00 0,4 C 91 % 1014,5 hPa 0,0 l/m N 0,00 h 0 W/m 0,0 km/h (0 Bft)
26.02.2014 06:00 -0,6 C 92 % 1014,3 hPa 0,0 l/m N 0,00 h 0 W/m 0,4 km/h (0 Bft)
26.02.2014 07:00 -1,0 C 92 % 1014,4 hPa 0,0 l/m N 0,00 h 19 W/m 0,1 km/h (0 Bft)
26.02.2014 08:00 1,3 C 87 % 1014,6 hPa 0,0 l/m N 0,58 h 125 W/m 1,5 km/h (1 Bft)
26.02.2014 09:00 4,6 C 72 % 1014,7 hPa 0,0 l/m S-SW 0,75 h 250 W/m 2,0 km/h (1 Bft)
26.02.2014 10:00 7,5 C 63 % 1014,5 hPa 0,0 l/m N-NO 1,00 h 424 W/m 10,2 km/h (2 Bft)
26.02.2014 11:00 9,3 C 56 % 1014,3 hPa 0,0 l/m O-NO 1,00 h 525 W/m 16,0 km/h (3 Bft)
26.02.2014 12:00 10,6 C 52 % 1013,8 hPa 0,0 l/m NO 1,00 h 562 W/m 15,8 km/h (3 Bft)
26.02.2014 13:00 11,3 C 53 % 1013,4 hPa 0,0 l/m NO 1,00 h 513 W/m 14,9 km/h (3 Bft)
26.02.2014 14:00 11,0 C 55 % 1013,5 hPa 0,0 l/m NO 0,00 h 165 W/m 11,3 km/h (2 Bft)
26.02.2014 15:00 10,7 C 59 % 1013,8 hPa 0,0 l/m N-NO 0,42 h 195 W/m 15,3 km/h (3 Bft)
26.02.2014 16:00 10,1 C 60 % 1014,4 hPa 0,0 l/m N-NO 0,00 h 67 W/m 9,5 km/h (2 Bft)
26.02.2014 17:00 9,1 C 62 % 1015,0 hPa 0,0 l/m NO 0,00 h 17 W/m 3,6 km/h (1 Bft)
26.02.2014 18:00 7,7 C 70 % 1015,9 hPa 0,0 l/m N 0,00 h 0 W/m 6,3 km/h (2 Bft)
26.02.2014 19:00 7,0 C 82 % 1016,8 hPa 0,0 l/m N-NW 0,00 h 0 W/m 10,3 km/h (2 Bft)
26.02.2014 20:00 6,2 C 87 % 1017,1 hPa 0,0 l/m N-NW 0,00 h 0 W/m 10,4 km/h (2 Bft)
26.02.2014 21:00 5,4 C 90 % 1017,6 hPa 0,0 l/m N 0,00 h 0 W/m 4,5 km/h (1 Bft)
26.02.2014 22:00 5,2 C 90 % 1017,7 hPa 0,0 l/m N-NO 0,00 h 0 W/m 7,0 km/h (2 Bft)
26.02.2014 23:00 5,1 C 89 % 1018,0 hPa 0,0 l/m N-NO 0,00 h 0 W/m 6,2 km/h (2 Bft)
27.02.2014 00:00 5,0 C 90 % 1018,3 hPa 0,0 l/m N-NO 0,00 h 0 W/m 1,9 km/h (1 Bft)
27.02.2014 01:00 4,8 C 91 % 1018,5 hPa 0,0 l/m N-NO 0,00 h 0 W/m 3,6 km/h (1 Bft)
27.02.2014 02:00 4,5 C 94 % 1018,9 hPa 0,4 l/m S-SW 0,00 h 0 W/m 2,3 km/h (1 Bft)
27.02.2014 03:00 3,3 C 96 % 1019,2 hPa 0,6 l/m W-NW 0,00 h 0 W/m 8,7 km/h (2 Bft)
27.02.2014 04:00 2,3 C 96 % 1019,5 hPa 0,4 l/m S-SW 0,00 h 0 W/m 8,5 km/h (2 Bft)
27.02.2014 05:00 1,4 C 97 % 1019,8 hPa 0,0 l/m S-SW 0,00 h 0 W/m 8,0 km/h (2 Bft)
27.02.2014 06:00 1,0 C 97 % 1019,8 hPa 0,2 l/m S-SW 0,00 h 0 W/m 9,1 km/h (2 Bft)
27.02.2014 07:00 0,5 C 98 % 1019,9 hPa 0,2 l/m S-SW 0,00 h 12 W/m 8,6 km/h (2 Bft)
27.02.2014 08:00 0,5 C 98 % 1020,3 hPa 0,2 l/m S-SW 0,00 h 21 W/m 10,7 km/h (2 Bft)
27.02.2014 09:00 0,7 C 98 % 1020,3 hPa 0,2 l/m S-SW 0,00 h 38 W/m 9,9 km/h (2 Bft)
27.02.2014 10:00 1,2 C 99 % 1020,0 hPa 0,2 l/m S-SW 0,00 h 60 W/m 9,8 km/h (2 Bft)
27.02.2014 11:00 2,1 C 99 % 1019,5 hPa 0,0 l/m S-SW 0,25 h 200 W/m 11,2 km/h (2 Bft)
27.02.2014 12:00 4,0 C 97 % 1018,1 hPa 0,0 l/m S-SW 0,58 h 335 W/m 10,9 km/h (2 Bft)
27.02.2014 13:00 5,7 C 90 % 1016,5 hPa 0,0 l/m S-SW 0,58 h 419 W/m 10,7 km/h (2 Bft)
27.02.2014 14:00 6,4 C 84 % 1015,2 hPa 0,0 l/m SW 0,92 h 519 W/m 11,3 km/h (2 Bft)
27.02.2014 15:00 7,0 C 73 % 1014,5 hPa 0,0 l/m W 0,75 h 325 W/m 9,4 km/h (2 Bft)
27.02.2014 16:00 6,3 C 74 % 1013,9 hPa 0,0 l/m W-SW 0,75 h 178 W/m 8,6 km/h (2 Bft)
27.02.2014 17:00 5,3 C 74 % 1013,3 hPa 0,0 l/m W-SW 0,00 h 21 W/m 4,3 km/h (1 Bft)
27.02.2014 18:00 3,5 C 84 % 1013,2 hPa 0,0 l/m N 0,00 h 0 W/m 0,3 km/h (0 Bft)
27.02.2014 19:00 2,9 C 88 % 1013,1 hPa 0,0 l/m N 0,00 h 0 W/m 1,2 km/h (1 Bft)
27.02.2014 20:00 2,8 C 91 % 1012,9 hPa 0,0 l/m W-SW 0,00 h 0 W/m 4,5 km/h (1 Bft)
27.02.2014 21:00 4,0 C 86 % 1012,8 hPa 0,2 l/m W-SW 0,00 h 0 W/m 13,3 km/h (3 Bft)
27.02.2014 22:00 3,0 C 91 % 1012,7 hPa 0,8 l/m W-SW 0,00 h 0 W/m 13,4 km/h (3 Bft)
27.02.2014 23:00 2,1 C 95 % 1012,5 hPa 1,0 l/m SW 0,00 h 0 W/m 14,8 km/h (3 Bft)
28.02.2014 00:00 1,6 C 96 % 1012,0 hPa 0,2 l/m S-SW 0,00 h 0 W/m 14,0 km/h (3 Bft)
28.02.2014 01:00 2,0 C 97 % 1011,5 hPa 0,0 l/m SW 0,00 h 0 W/m 15,3 km/h (3 Bft)
28.02.2014 02:00 2,5 C 96 % 1011,3 hPa 0,0 l/m W-SW 0,00 h 0 W/m 20,5 km/h (4 Bft)
28.02.2014 03:00 2,5 C 94 % 1010,8 hPa 0,0 l/m W-SW 0,00 h 0 W/m 23,4 km/h (4 Bft)
28.02.2014 04:00 2,2 C 94 % 1010,2 hPa 0,0 l/m W-SW 0,00 h 0 W/m 14,8 km/h (3 Bft)
28.02.2014 05:00 2,1 C 95 % 1009,7 hPa 0,0 l/m SW 0,00 h 0 W/m 10,2 km/h (2 Bft)
28.02.2014 06:00 2,0 C 96 % 1009,2 hPa 0,6 l/m SW 0,00 h 0 W/m 11,0 km/h (2 Bft)
28.02.2014 07:00 2,2 C 97 % 1008,5 hPa 0,0 l/m SW 0,00 h 12 W/m 13,6 km/h (3 Bft)
28.02.2014 08:00 2,6 C 96 % 1007,9 hPa 0,0 l/m S-SW 0,00 h 46 W/m 10,2 km/h (2 Bft)
28.02.2014 09:00 3,6 C 96 % 1007,1 hPa 0,0 l/m SW 0,42 h 241 W/m 14,2 km/h (3 Bft)
28.02.2014 10:00 4,4 C 92 % 1005,7 hPa 0,0 l/m SW 0,00 h 149 W/m 12,8 km/h (3 Bft)
28.02.2014 11:00 5,3 C 85 % 1004,7 hPa 0,0 l/m W-SW 0,08 h 191 W/m 15,7 km/h (3 Bft)
28.02.2014 12:00 6,4 C 78 % 1003,4 hPa 0,0 l/m W-SW 0,75 h 510 W/m 12,2 km/h (2 Bft)
28.02.2014 13:00 7,8 C 73 % 1001,7 hPa 0,0 l/m S-SW 1,00 h 576 W/m 7,0 km/h (2 Bft)
28.02.2014 14:00 8,8 C 68 % 1000,9 hPa 0,0 l/m O 0,92 h 444 W/m 8,2 km/h (2 Bft)
28.02.2014 15:00 9,3 C 66 % 999,9 hPa 0,0 l/m O-SO 0,25 h 195 W/m 8,3 km/h (2 Bft)
28.02.2014 16:00 8,8 C 68 % 999,5 hPa 0,0 l/m O 0,00 h 64 W/m 7,2 km/h (2 Bft)
28.02.2014 17:00 8,2 C 72 % 999,4 hPa 0,0 l/m O 0,00 h 15 W/m 3,6 km/h (1 Bft)
28.02.2014 18:00 7,0 C 78 % 999,6 hPa 0,0 l/m N 0,00 h 0 W/m 1,5 km/h (1 Bft)
28.02.2014 19:00 5,2 C 84 % 999,6 hPa 0,0 l/m N 0,00 h 0 W/m 0,4 km/h (0 Bft)
28.02.2014 20:00 3,8 C 88 % 999,4 hPa 0,0 l/m N 0,00 h 0 W/m 1,5 km/h (1 Bft)
28.02.2014 21:00 4,1 C 89 % 999,5 hPa 0,0 l/m O-NO 0,00 h 0 W/m 3,6 km/h (1 Bft)
28.02.2014 22:00 4,1 C 88 % 999,9 hPa 0,0 l/m W-NW 0,00 h 0 W/m 7,2 km/h (2 Bft)
28.02.2014 23:00 4,2 C 87 % 1000,3 hPa 0,0 l/m W 0,00 h 0 W/m 8,4 km/h (2 Bft)
01.03.2014 00:00 2,9 C 90 % 1000,7 hPa 0,0 l/m W-SW 0,00 h 0 W/m 3,1 km/h (1 Bft)
01.03.2014 01:00 1,9 C 93 % 1000,8 hPa 0,0 l/m W-SW 0,00 h 0 W/m 3,6 km/h (1 Bft)
01.03.2014 02:00 1,3 C 94 % 1000,9 hPa 0,0 l/m W-SW 0,00 h 0 W/m 2,8 km/h (1 Bft)
01.03.2014 03:00 1,3 C 95 % 1001,0 hPa 0,0 l/m N 0,00 h 0 W/m 0,7 km/h (0 Bft)
01.03.2014 04:00 1,5 C 95 % 1000,9 hPa 0,0 l/m W-SW 0,00 h 0 W/m 2,3 km/h (1 Bft)
01.03.2014 05:00 2,1 C 93 % 1000,9 hPa 0,0 l/m W-SW 0,00 h 0 W/m 4,1 km/h (1 Bft)
01.03.2014 06:00 2,3 C 92 % 1001,0 hPa 0,0 l/m W-NW 0,00 h 0 W/m 12,0 km/h (2 Bft)
01.03.2014 07:00 2,2 C 92 % 1001,5 hPa 0,0 l/m W-NW 0,00 h 10 W/m 6,8 km/h (2 Bft)
01.03.2014 08:00 2,1 C 93 % 1001,9 hPa 0,0 l/m W 0,00 h 21 W/m 3,5 km/h (1 Bft)
01.03.2014 09:00 2,4 C 93 % 1001,9 hPa 0,0 l/m N 0,00 h 50 W/m 2,4 km/h (1 Bft)
01.03.2014 10:00 2,8 C 93 % 1001,8 hPa 0,0 l/m SW 0,00 h 59 W/m 6,8 km/h (2 Bft)
01.03.2014 11:00 3,1 C 95 % 1001,7 hPa 0,0 l/m S-SW 0,00 h 75 W/m 7,5 km/h (2 Bft)
01.03.2014 12:00 3,6 C 92 % 1001,2 hPa 0,0 l/m S-SW 0,00 h 67 W/m 5,7 km/h (1 Bft)
01.03.2014 13:00 4,1 C 89 % 1000,8 hPa 0,0 l/m S-SW 0,00 h 91 W/m 9,7 km/h (2 Bft)
01.03.2014 14:00 3,9 C 91 % 1000,6 hPa 0,0 l/m S-SW 0,00 h 66 W/m 9,8 km/h (2 Bft)
01.03.2014 15:00 4,4 C 84 % 1000,2 hPa 0,0 l/m W-SW 0,00 h 80 W/m 6,4 km/h (2 Bft)
01.03.2014 16:00 4,7 C 80 % 1000,3 hPa 0,0 l/m W-SW 0,00 h 62 W/m 5,5 km/h (1 Bft)
01.03.2014 17:00 4,3 C 82 % 1000,3 hPa 0,0 l/m W-SW 0,00 h 20 W/m 3,2 km/h (1 Bft)
01.03.2014 18:00 3,9 C 86 % 1000,6 hPa 0,0 l/m N 0,00 h 0 W/m 0,5 km/h (0 Bft)
01.03.2014 19:00 3,3 C 90 % 1000,9 hPa 0,0 l/m N 0,00 h 0 W/m 2,1 km/h (1 Bft)
01.03.2014 20:00 3,1 C 90 % 1001,0 hPa 0,2 l/m N 0,00 h 0 W/m 0,0 km/h (0 Bft)
01.03.2014 21:00 2,7 C 92 % 1001,2 hPa 0,6 l/m W-SW 0,00 h 0 W/m 2,1 km/h (1 Bft)
01.03.2014 22:00 1,9 C 95 % 1001,3 hPa 0,8 l/m N 0,00 h 0 W/m 2,0 km/h (1 Bft)
01.03.2014 23:00 1,5 C 96 % 1001,3 hPa 0,6 l/m N 0,00 h 0 W/m 0,9 km/h (0 Bft)
02.03.2014 00:00 1,2 C 97 % 1001,3 hPa 0,4 l/m N 0,00 h 0 W/m 0,4 km/h (0 Bft)
02.03.2014 01:00 1,1 C 97 % 1001,5 hPa 0,4 l/m N 0,00 h 0 W/m 0,0 km/h (0 Bft)
02.03.2014 02:00 1,0 C 97 % 1001,4 hPa 0,2 l/m N 0,00 h 0 W/m 0,0 km/h (0 Bft)
02.03.2014 03:00 1,2 C 97 % 1001,4 hPa 0,0 l/m N 0,00 h 0 W/m 0,0 km/h (0 Bft)
02.03.2014 04:00 1,3 C 97 % 1001,6 hPa 0,0 l/m N 0,00 h 0 W/m 0,3 km/h (0 Bft)
02.03.2014 05:00 1,3 C 97 % 1002,1 hPa 0,0 l/m W-SW 0,00 h 0 W/m 0,7 km/h (0 Bft)
02.03.2014 06:00 1,3 C 98 % 1002,4 hPa 0,2 l/m N 0,00 h 0 W/m 1,1 km/h (0 Bft)
02.03.2014 07:00 1,3 C 98 % 1003,1 hPa 0,0 l/m N 0,00 h 0 W/m 0,0 km/h (0 Bft)
02.03.2014 08:00 1,6 C 98 % 1004,1 hPa 0,0 l/m N 0,00 h 10 W/m 0,0 km/h (0 Bft)
02.03.2014 09:00 1,9 C 98 % 1004,8 hPa 0,2 l/m W-SW 0,00 h 15 W/m 2,8 km/h (1 Bft)
02.03.2014 10:00 2,2 C 98 % 1005,1 hPa 0,0 l/m W-SW 0,00 h 28 W/m 2,1 km/h (1 Bft)
02.03.2014 11:00 2,5 C 98 % 1005,0 hPa 0,0 l/m W 0,00 h 83 W/m 4,9 km/h (1 Bft)
02.03.2014 12:00 3,5 C 96 % 1005,0 hPa 0,0 l/m N-NW 0,00 h 115 W/m 5,3 km/h (1 Bft)
02.03.2014 13:00 3,9 C 93 % 1004,6 hPa 0,0 l/m NO 0,00 h 82 W/m 5,3 km/h (1 Bft)
02.03.2014 14:00 4,4 C 91 % 1003,9 hPa 0,0 l/m O-NO 0,00 h 98 W/m 6,3 km/h (2 Bft)
02.03.2014 15:00 4,7 C 90 % 1003,6 hPa 0,0 l/m O-NO 0,00 h 61 W/m 8,0 km/h (2 Bft)
02.03.2014 16:00 4,7 C 89 % 1003,2 hPa 0,0 l/m O-SO 0,00 h 55 W/m 6,5 km/h (2 Bft)
02.03.2014 17:00 4,5 C 89 % 1002,8 hPa 0,0 l/m N 0,00 h 15 W/m 2,0 km/h (1 Bft)
02.03.2014 18:00 4,2 C 91 % 1002,7 hPa 0,0 l/m N 0,00 h 0 W/m 2,0 km/h (1 Bft)
02.03.2014 19:00 3,9 C 92 % 1001,8 hPa 0,0 l/m O-SO 0,00 h 0 W/m 2,3 km/h (1 Bft)
02.03.2014 20:00 3,2 C 92 % 1001,3 hPa 0,0 l/m N 0,00 h 0 W/m 0,5 km/h (0 Bft)
02.03.2014 21:00 2,1 C 92 % 1000,4 hPa 0,0 l/m O-SO 0,00 h 0 W/m 1,5 km/h (1 Bft)
02.03.2014 22:00 1,6 C 95 % 999,5 hPa 0,0 l/m O-SO 0,00 h 0 W/m 2,4 km/h (1 Bft)
02.03.2014 23:00 0,8 C 94 % 998,3 hPa 0,0 l/m N 0,00 h 0 W/m 0,3 km/h (0 Bft)
Min-Datum _ 25.02.14 24.02.14 02.03.14 - - - - 24.02.14
_ Min-Zeit 06:55 16:35 23:55 - - - - 00:20
Minimum _ -3,3 C 45 % 997,5 hPa - - - - 0,0 km/h (0 Bft)
Max-Datum _ 26.02.14 27.02.14 27.02.14 27.02.14 - 24.02.14 27.02.14 28.02.14
_ Max-Zeit 13:25 10:10 08:20 23:05 - 08:30 13:30 02:25
Maximum _ 11,7 C 99 % 1020,4 hPa 1,0 l/m - 0,08 h 687 W/m 27,4 km/h
W-SW (4 Bft)
Durchschnitt _ 3,4 C 86 % 1010,4 hPa #9,0 l/m S-SW #29:50 h 197 W/m 5,5 km/h (1 Bft)